sensor_id;sensor_type;location;lat;lon;timestamp;pressure;altitude;pressure_sealevel;temperature;humidity
74346;BME280;62776;50.518;6.732;2023-03-19T00:02:10;96138.44;;;10.40;100.00
74346;BME280;62776;50.518;6.732;2023-03-19T00:04:57;96141.06;;;10.36;100.00
74346;BME280;62776;50.518;6.732;2023-03-19T00:07:45;96141.97;;;10.35;100.00
74346;BME280;62776;50.518;6.732;2023-03-19T00:10:37;96148.13;;;10.28;100.00
74346;BME280;62776;50.518;6.732;2023-03-19T00:13:24;96138.66;;;10.27;100.00
74346;BME280;62776;50.518;6.732;2023-03-19T00:16:17;96147.41;;;10.20;100.00
74346;BME280;62776;50.518;6.732;2023-03-19T00:19:04;96145.75;;;10.16;100.00
74346;BME280;62776;50.518;6.732;2023-03-19T00:21:50;96146.66;;;10.13;100.00
74346;BME280;62776;50.518;6.732;2023-03-19T00:24:40;96144.13;;;10.07;100.00
74346;BME280;62776;50.518;6.732;2023-03-19T00:27:27;96139.88;;;10.01;100.00
74346;BME280;62776;50.518;6.732;2023-03-19T00:30:16;96139.88;;;10.00;100.00
74346;BME280;62776;50.518;6.732;2023-03-19T00:33:03;96140.78;;;9.97;100.00
74346;BME280;62776;50.518;6.732;2023-03-19T00:35:50;96133.91;;;9.95;100.00
74346;BME280;62776;50.518;6.732;2023-03-19T00:38:40;96139.94;;;9.95;100.00
74346;BME280;62776;50.518;6.732;2023-03-19T00:41:27;96140.91;;;9.91;100.00
74346;BME280;62776;50.518;6.732;2023-03-19T00:44:15;96133.97;;;9.90;100.00
74346;BME280;62776;50.518;6.732;2023-03-19T00:47:11;96137.44;;;9.89;100.00
74346;BME280;62776;50.518;6.732;2023-03-19T00:49:58;96142.72;;;9.85;100.00
74346;BME280;62776;50.518;6.732;2023-03-19T00:52:44;96142.78;;;9.80;100.00
74346;BME280;62776;50.518;6.732;2023-03-19T00:55:31;96146.28;;;9.76;100.00
74346;BME280;62776;50.518;6.732;2023-03-19T00:58:18;96140.31;;;9.71;100.00
74346;BME280;62776;50.518;6.732;2023-03-19T01:01:06;96134.31;;;9.66;100.00
74346;BME280;62776;50.518;6.732;2023-03-19T01:03:53;96139.50;;;9.65;100.00
74346;BME280;62776;50.518;6.732;2023-03-19T01:06:40;96136.13;;;9.61;100.00
74346;BME280;62776;50.518;6.732;2023-03-19T01:09:29;96137.03;;;9.57;100.00
74346;BME280;62776;50.518;6.732;2023-03-19T01:12:21;96137.03;;;9.57;100.00
74346;BME280;62776;50.518;6.732;2023-03-19T01:15:07;96133.59;;;9.54;100.00
74346;BME280;62776;50.518;6.732;2023-03-19T01:17:54;96132.78;;;9.53;100.00
74346;BME280;62776;50.518;6.732;2023-03-19T01:20:46;96133.72;;;9.46;100.00
74346;BME280;62776;50.518;6.732;2023-03-19T01:23:33;96135.41;;;9.50;100.00
74346;BME280;62776;50.518;6.732;2023-03-19T01:26:20;96137.13;;;9.49;100.00
74346;BME280;62776;50.518;6.732;2023-03-19T01:29:07;96138.88;;;9.49;100.00
74346;BME280;62776;50.518;6.732;2023-03-19T01:31:53;96144.03;;;9.50;100.00
74346;BME280;62776;50.518;6.732;2023-03-19T01:34:39;96147.47;;;9.51;100.00
74346;BME280;62776;50.518;6.732;2023-03-19T01:37:27;96134.53;;;9.48;100.00
74346;BME280;62776;50.518;6.732;2023-03-19T01:40:14;96132.88;;;9.44;100.00
74346;BME280;62776;50.518;6.732;2023-03-19T01:43:22;96139.13;;;9.31;100.00
74346;BME280;62776;50.518;6.732;2023-03-19T01:46:23;96133.03;;;9.32;100.00
74346;BME280;62776;50.518;6.732;2023-03-19T01:49:15;96137.34;;;9.33;100.00
74346;BME280;62776;50.518;6.732;2023-03-19T01:52:07;96140.00;;;9.27;100.00
74346;BME280;62776;50.518;6.732;2023-03-19T01:55:05;96139.16;;;9.26;100.00
74346;BME280;62776;50.518;6.732;2023-03-19T01:57:53;96146.97;;;9.25;100.00
74346;BME280;62776;50.518;6.732;2023-03-19T02:00:41;96146.13;;;9.21;100.00
74346;BME280;62776;50.518;6.732;2023-03-19T02:03:37;96147.03;;;9.19;100.00
74346;BME280;62776;50.518;6.732;2023-03-19T02:06:31;96144.50;;;9.14;100.00
74346;BME280;62776;50.518;6.732;2023-03-19T02:09:19;96142.75;;;9.13;100.00
74346;BME280;62776;50.518;6.732;2023-03-19T02:12:13;96143.66;;;9.09;100.00
74346;BME280;62776;50.518;6.732;2023-03-19T02:15:02;96144.56;;;9.08;100.00
74346;BME280;62776;50.518;6.732;2023-03-19T02:17:48;96137.63;;;9.07;100.00
74346;BME280;62776;50.518;6.732;2023-03-19T02:23:37;96138.63;;;8.96;100.00
74346;BME280;62776;50.518;6.732;2023-03-19T02:26:28;96136.91;;;8.98;100.00
74346;BME280;62776;50.518;6.732;2023-03-19T02:29:16;96129.94;;;9.03;100.00
74346;BME280;62776;50.518;6.732;2023-03-19T02:32:03;96134.22;;;9.05;100.00
74346;BME280;62776;50.518;6.732;2023-03-19T02:34:50;96135.13;;;9.03;100.00
74346;BME280;62776;50.518;6.732;2023-03-19T02:37:47;96133.34;;;9.05;100.00
74346;BME280;62776;50.518;6.732;2023-03-19T02:40:50;96134.19;;;9.07;100.00
74346;BME280;62776;50.518;6.732;2023-03-19T02:43:39;96136.75;;;9.10;100.00
74346;BME280;62776;50.518;6.732;2023-03-19T02:46:27;96133.22;;;9.17;100.00
74346;BME280;62776;50.518;6.732;2023-03-19T02:49:13;96136.66;;;9.19;100.00
74346;BME280;62776;50.518;6.732;2023-03-19T02:52:02;96134.00;;;9.23;100.00
74346;BME280;62776;50.518;6.732;2023-03-19T02:54:48;96133.09;;;9.26;100.00
74346;BME280;62776;50.518;6.732;2023-03-19T02:57:36;96134.00;;;9.25;100.00
74346;BME280;62776;50.518;6.732;2023-03-19T03:00:24;96135.75;;;9.23;100.00
74346;BME280;62776;50.518;6.732;2023-03-19T03:03:14;96139.28;;;9.16;100.00
74346;BME280;62776;50.518;6.732;2023-03-19T03:06:03;96141.06;;;9.09;100.00
74346;BME280;62776;50.518;6.732;2023-03-19T03:08:49;96138.47;;;9.09;100.00
74346;BME280;62776;50.518;6.732;2023-03-19T03:11:37;96136.84;;;9.04;100.00
74346;BME280;62776;50.518;6.732;2023-03-19T03:14:24;96140.31;;;9.00;100.00
74346;BME280;62776;50.518;6.732;2023-03-19T03:17:11;96145.56;;;8.94;100.00
74346;BME280;62776;50.518;6.732;2023-03-19T03:19:58;96132.66;;;8.89;100.00
74346;BME280;62776;50.518;6.732;2023-03-19T03:22:51;96139.63;;;8.84;100.00
74346;BME280;62776;50.518;6.732;2023-03-19T03:25:38;96135.34;;;8.80;100.00
74346;BME280;62776;50.518;6.732;2023-03-19T03:28:24;96131.09;;;8.76;100.00
74346;BME280;62776;50.518;6.732;2023-03-19T03:31:13;96116.41;;;8.75;100.00
74346;BME280;62776;50.518;6.732;2023-03-19T03:34:00;96125.06;;;8.71;100.00
74346;BME280;62776;50.518;6.732;2023-03-19T03:36:46;96135.47;;;8.66;100.00
74346;BME280;62776;50.518;6.732;2023-03-19T03:39:33;96126.00;;;8.64;100.00
74346;BME280;62776;50.518;6.732;2023-03-19T03:42:20;96130.34;;;8.63;100.00
74346;BME280;62776;50.518;6.732;2023-03-19T03:45:08;96121.75;;;8.58;100.00
74346;BME280;62776;50.518;6.732;2023-03-19T03:47:55;96131.28;;;8.56;100.00
74346;BME280;62776;50.518;6.732;2023-03-19T03:50:48;96140.81;;;8.51;100.00
74346;BME280;62776;50.518;6.732;2023-03-19T03:53:43;96144.31;;;8.44;100.00
74346;BME280;62776;50.518;6.732;2023-03-19T03:56:31;96138.28;;;8.45;100.00
74346;BME280;62776;50.518;6.732;2023-03-19T03:59:18;96132.25;;;8.43;100.00
74346;BME280;62776;50.518;6.732;2023-03-19T04:02:05;96134.00;;;8.41;100.00
74346;BME280;62776;50.518;6.732;2023-03-19T04:04:53;96140.09;;;8.37;100.00
74346;BME280;62776;50.518;6.732;2023-03-19T04:07:40;96141.81;;;8.37;100.00
74346;BME280;62776;50.518;6.732;2023-03-19T04:10:29;96149.59;;;8.34;100.00
74346;BME280;62776;50.518;6.732;2023-03-19T04:13:16;96151.34;;;8.30;100.00
74346;BME280;62776;50.518;6.732;2023-03-19T04:16:06;96142.75;;;8.22;100.00
74346;BME280;62776;50.518;6.732;2023-03-19T04:18:54;96150.50;;;8.25;100.00
74346;BME280;62776;50.518;6.732;2023-03-19T04:21:41;96147.94;;;8.23;100.00
74346;BME280;62776;50.518;6.732;2023-03-19T04:24:30;96155.69;;;8.23;100.00
74346;BME280;62776;50.518;6.732;2023-03-19T04:27:17;96141.88;;;8.21;100.00
74346;BME280;62776;50.518;6.732;2023-03-19T04:30:04;96150.53;;;8.20;100.00
74346;BME280;62776;50.518;6.732;2023-03-19T04:32:50;96153.97;;;8.22;100.00
74346;BME280;62776;50.518;6.732;2023-03-19T04:35:43;96154.00;;;8.21;100.00
74346;BME280;62776;50.518;6.732;2023-03-19T04:38:30;96163.47;;;8.22;100.00
74346;BME280;62776;50.518;6.732;2023-03-19T04:41:18;96163.47;;;8.20;100.00
74346;BME280;62776;50.518;6.732;2023-03-19T04:44:05;96174.69;;;8.21;100.00
74346;BME280;62776;50.518;6.732;2023-03-19T04:46:55;96185.88;;;8.24;100.00
74346;BME280;62776;50.518;6.732;2023-03-19T04:49:47;96191.06;;;8.26;100.00
74346;BME280;62776;50.518;6.732;2023-03-19T04:52:33;96189.31;;;8.31;100.00
74346;BME280;62776;50.518;6.732;2023-03-19T04:55:20;96189.28;;;8.37;100.00
74346;BME280;62776;50.518;6.732;2023-03-19T04:58:15;96186.66;;;8.39;100.00
74346;BME280;62776;50.518;6.732;2023-03-19T05:01:12;96184.09;;;8.40;100.00
74346;BME280;62776;50.518;6.732;2023-03-19T05:03:58;96177.13;;;8.45;100.00
74346;BME280;62776;50.518;6.732;2023-03-19T05:06:48;96180.56;;;8.47;100.00
74346;BME280;62776;50.518;6.732;2023-03-19T05:09:35;96185.72;;;8.50;100.00
74346;BME280;62776;50.518;6.732;2023-03-19T05:12:21;96186.56;;;8.52;100.00
74346;BME280;62776;50.518;6.732;2023-03-19T05:15:14;96184.84;;;8.50;100.00
74346;BME280;62776;50.518;6.732;2023-03-19T05:18:00;96187.38;;;8.54;100.00
74346;BME280;62776;50.518;6.732;2023-03-19T05:20:50;96194.31;;;8.57;100.00
74346;BME280;62776;50.518;6.732;2023-03-19T05:23:38;96200.31;;;8.57;100.00
74346;BME280;62776;50.518;6.732;2023-03-19T05:26:25;96189.03;;;8.63;100.00
74346;BME280;62776;50.518;6.732;2023-03-19T05:29:12;96190.81;;;8.62;100.00
74346;BME280;62776;50.518;6.732;2023-03-19T05:31:59;96199.44;;;8.61;100.00
74346;BME280;62776;50.518;6.732;2023-03-19T05:34:48;96195.13;;;8.62;100.00
74346;BME280;62776;50.518;6.732;2023-03-19T05:37:35;96193.41;;;8.59;100.00
74346;BME280;62776;50.518;6.732;2023-03-19T05:40:22;96198.63;;;8.56;100.00
74346;BME280;62776;50.518;6.732;2023-03-19T05:43:09;96183.06;;;8.58;100.00
74346;BME280;62776;50.518;6.732;2023-03-19T05:45:57;96194.28;;;8.58;100.00
74346;BME280;62776;50.518;6.732;2023-03-19T05:48:44;96196.84;;;8.60;100.00
74346;BME280;62776;50.518;6.732;2023-03-19T05:51:30;96195.13;;;8.60;100.00
74346;BME280;62776;50.518;6.732;2023-03-19T05:54:20;96208.06;;;8.60;100.00
74346;BME280;62776;50.518;6.732;2023-03-19T05:57:07;96211.53;;;8.62;100.00
74346;BME280;62776;50.518;6.732;2023-03-19T05:59:55;96202.00;;;8.63;100.00
74346;BME280;62776;50.518;6.732;2023-03-19T06:02:44;96209.81;;;8.61;100.00
74346;BME280;62776;50.518;6.732;2023-03-19T06:05:32;96210.66;;;8.60;100.00
74346;BME280;62776;50.518;6.732;2023-03-19T06:08:24;96203.72;;;8.64;100.00
74346;BME280;62776;50.518;6.732;2023-03-19T06:11:11;96206.28;;;8.65;100.00
74346;BME280;62776;50.518;6.732;2023-03-19T06:13:57;96209.75;;;8.67;100.00
74346;BME280;62776;50.518;6.732;2023-03-19T06:16:45;96197.66;;;8.68;100.00
74346;BME280;62776;50.518;6.732;2023-03-19T06:19:33;96207.13;;;8.69;100.00
74346;BME280;62776;50.518;6.732;2023-03-19T06:22:19;96205.38;;;8.72;100.00
74346;BME280;62776;50.518;6.732;2023-03-19T06:25:06;96208.81;;;8.74;100.00
74346;BME280;62776;50.518;6.732;2023-03-19T06:27:54;96212.25;;;8.78;100.00
74346;BME280;62776;50.518;6.732;2023-03-19T06:30:44;96213.09;;;8.81;100.00
74346;BME280;62776;50.518;6.732;2023-03-19T06:33:43;96228.00;;;8.54;100.00
74346;BME280;62776;50.518;6.732;2023-03-19T06:36:29;96233.75;;;8.87;100.00
74346;BME280;62776;50.518;6.732;2023-03-19T06:39:17;96235.41;;;8.96;100.00
74346;BME280;62776;50.518;6.732;2023-03-19T06:42:10;96236.19;;;9.01;100.00
74346;BME280;62776;50.518;6.732;2023-03-19T06:44:58;96239.59;;;9.09;100.00
74346;BME280;62776;50.518;6.732;2023-03-19T06:47:46;96245.59;;;9.13;100.00
74346;BME280;62776;50.518;6.732;2023-03-19T06:50:38;96249.88;;;9.20;100.00
74346;BME280;62776;50.518;6.732;2023-03-19T06:53:28;96251.56;;;9.25;100.00
74346;BME280;62776;50.518;6.732;2023-03-19T06:56:15;96252.34;;;9.29;100.00
74346;BME280;62776;50.518;6.732;2023-03-19T06:59:02;96253.19;;;9.32;100.00
74346;BME280;62776;50.518;6.732;2023-03-19T07:01:50;96251.47;;;9.33;100.00
74346;BME280;62776;50.518;6.732;2023-03-19T07:04:37;96252.28;;;9.35;100.00
74346;BME280;62776;50.518;6.732;2023-03-19T07:07:24;96246.25;;;9.34;100.00
74346;BME280;62776;50.518;6.732;2023-03-19T07:10:11;96254.88;;;9.35;100.00
74346;BME280;62776;50.518;6.732;2023-03-19T07:12:58;96256.59;;;9.37;100.00
74346;BME280;62776;50.518;6.732;2023-03-19T07:15:46;96264.41;;;9.34;100.00
74346;BME280;62776;50.518;6.732;2023-03-19T07:18:35;96262.63;;;9.41;100.00
74346;BME280;62776;50.518;6.732;2023-03-19T07:21:28;96267.84;;;9.38;100.00
74346;BME280;62776;50.518;6.732;2023-03-19T07:24:15;96270.38;;;9.44;100.00
74346;BME280;62776;50.518;6.732;2023-03-19T07:27:04;96273.75;;;9.49;100.00
74346;BME280;62776;50.518;6.732;2023-03-19T07:29:50;96276.34;;;9.52;100.00
74346;BME280;62776;50.518;6.732;2023-03-19T07:32:39;96278.06;;;9.53;100.00
74346;BME280;62776;50.518;6.732;2023-03-19T07:35:27;96278.91;;;9.55;100.00
74346;BME280;62776;50.518;6.732;2023-03-19T07:38:15;96276.25;;;9.61;100.00
74346;BME280;62776;50.518;6.732;2023-03-19T07:41:02;96279.66;;;9.62;100.00
74346;BME280;62776;50.518;6.732;2023-03-19T07:43:49;96277.88;;;9.68;100.00
74346;BME280;62776;50.518;6.732;2023-03-19T07:46:37;96272.66;;;9.71;100.00
74346;BME280;62776;50.518;6.732;2023-03-19T07:49:24;96276.09;;;9.73;100.00
74346;BME280;62776;50.518;6.732;2023-03-19T07:52:10;96278.69;;;9.73;100.00
74346;BME280;62776;50.518;6.732;2023-03-19T07:54:57;96277.78;;;9.76;100.00
74346;BME280;62776;50.518;6.732;2023-03-19T07:57:43;96282.06;;;9.80;100.00
74346;BME280;62776;50.518;6.732;2023-03-19T08:00:35;96283.78;;;9.82;100.00
74346;BME280;62776;50.518;6.732;2023-03-19T08:03:21;96280.22;;;9.91;100.00
74346;BME280;62776;50.518;6.732;2023-03-19T08:06:08;96280.97;;;9.97;100.00
74346;BME280;62776;50.518;6.732;2023-03-19T08:08:54;96280.91;;;10.03;100.00
74346;BME280;62776;50.518;6.732;2023-03-19T08:11:41;96280.00;;;10.07;100.00
74346;BME280;62776;50.518;6.732;2023-03-19T08:14:28;96276.50;;;10.08;100.00
74346;BME280;62776;50.518;6.732;2023-03-19T08:17:14;96270.44;;;10.09;100.00
74346;BME280;62776;50.518;6.732;2023-03-19T08:20:01;96272.25;;;10.04;100.00
74346;BME280;62776;50.518;6.732;2023-03-19T08:22:50;96273.94;;;10.07;100.00
74346;BME280;62776;50.518;6.732;2023-03-19T08:25:36;96273.94;;;10.05;100.00
74346;BME280;62776;50.518;6.732;2023-03-19T08:28:23;96274.84;;;10.03;100.00
74346;BME280;62776;50.518;6.732;2023-03-19T08:31:12;96273.13;;;10.03;100.00
74346;BME280;62776;50.518;6.732;2023-03-19T08:34:00;96273.88;;;10.12;100.00
74346;BME280;62776;50.518;6.732;2023-03-19T08:36:49;96279.97;;;10.11;100.00
74346;BME280;62776;50.518;6.732;2023-03-19T08:39:36;96284.25;;;10.15;100.00
74346;BME280;62776;50.518;6.732;2023-03-19T08:42:22;96297.16;;;10.21;100.00
74346;BME280;62776;50.518;6.732;2023-03-19T08:45:10;96297.13;;;10.24;100.00
74346;BME280;62776;50.518;6.732;2023-03-19T08:48:03;96297.03;;;10.33;100.00
74346;BME280;62776;50.518;6.732;2023-03-19T08:50:59;96301.25;;;10.40;100.00
74346;BME280;62776;50.518;6.732;2023-03-19T08:53:53;96295.78;;;10.58;100.00
74346;BME280;62776;50.518;6.732;2023-03-19T08:56:39;96297.38;;;10.68;100.00
74346;BME280;62776;50.518;6.732;2023-03-19T08:59:26;96293.75;;;10.78;100.00
74346;BME280;62776;50.518;6.732;2023-03-19T09:02:13;96304.00;;;10.87;100.00
74346;BME280;62776;50.518;6.732;2023-03-19T09:05:00;96298.66;;;10.96;100.00
74346;BME280;62776;50.518;6.732;2023-03-19T09:07:50;96300.41;;;10.94;100.00
74346;BME280;62776;50.518;6.732;2023-03-19T09:10:38;96309.03;;;10.96;100.00
74346;BME280;62776;50.518;6.732;2023-03-19T09:13:25;96302.84;;;11.06;100.00
74346;BME280;62776;50.518;6.732;2023-03-19T09:16:14;96296.69;;;11.10;100.00
74346;BME280;62776;50.518;6.732;2023-03-19T09:19:02;96301.78;;;11.16;100.00
74346;BME280;62776;50.518;6.732;2023-03-19T09:21:50;96305.84;;;11.34;100.00
74346;BME280;62776;50.518;6.732;2023-03-19T09:24:37;96303.09;;;11.40;100.00
74346;BME280;62776;50.518;6.732;2023-03-19T09:27:23;96305.50;;;11.52;100.00
74346;BME280;62776;50.518;6.732;2023-03-19T09:30:10;96311.41;;;11.62;100.00
74346;BME280;62776;50.518;6.732;2023-03-19T09:32:56;96312.16;;;11.70;100.00
74346;BME280;62776;50.518;6.732;2023-03-19T09:35:47;96314.81;;;11.65;100.00
74346;BME280;62776;50.518;6.732;2023-03-19T09:38:34;96318.97;;;11.77;100.00
74346;BME280;62776;50.518;6.732;2023-03-19T09:41:48;96319.72;;;11.82;100.00
74346;BME280;62776;50.518;6.732;2023-03-19T09:44:46;96324.41;;;12.09;100.00
74346;BME280;62776;50.518;6.732;2023-03-19T09:47:33;96323.25;;;12.24;100.00
74346;BME280;62776;50.518;6.732;2023-03-19T09:50:27;96332.56;;;12.35;100.00
74346;BME280;62776;50.518;6.732;2023-03-19T09:56:07;96327.75;;;12.14;100.00
74346;BME280;62776;50.518;6.732;2023-03-19T09:59:02;96329.59;;;12.11;100.00
74346;BME280;62776;50.518;6.732;2023-03-19T10:05:46;96326.00;;;12.16;100.00
74346;BME280;62776;50.518;6.732;2023-03-19T10:09:01;96323.25;;;12.22;100.00
74346;BME280;62776;50.518;6.732;2023-03-19T10:15:30;96332.69;;;12.28;100.00
74346;BME280;62776;50.518;6.732;2023-03-19T10:18:27;96326.94;;;12.54;100.00
74346;BME280;62776;50.518;6.732;2023-03-19T10:21:34;96330.53;;;12.50;100.00
74346;BME280;62776;50.518;6.732;2023-03-19T10:24:31;96341.31;;;12.73;100.00
74346;BME280;62776;50.518;6.732;2023-03-19T10:27:20;96347.25;;;12.79;100.00
74346;BME280;62776;50.518;6.732;2023-03-19T10:30:13;96342.72;;;12.87;100.00
74346;BME280;62776;50.518;6.732;2023-03-19T10:33:22;96348.63;;;12.94;100.00
74346;BME280;62776;50.518;6.732;2023-03-19T10:36:11;96342.34;;;13.04;100.00
74346;BME280;62776;50.518;6.732;2023-03-19T10:38:58;96335.38;;;13.05;100.00
74346;BME280;62776;50.518;6.732;2023-03-19T10:45:28;96351.34;;;12.89;100.00
74346;BME280;62776;50.518;6.732;2023-03-19T10:48:17;96349.38;;;13.00;100.00
74346;BME280;62776;50.518;6.732;2023-03-19T10:51:05;96348.28;;;13.11;100.00
74346;BME280;62776;50.518;6.732;2023-03-19T10:53:54;96349.97;;;13.13;100.00
74346;BME280;62776;50.518;6.732;2023-03-19T10:56:45;96342.03;;;13.18;100.00
74346;BME280;62776;50.518;6.732;2023-03-19T10:59:38;96337.56;;;13.21;100.00
74346;BME280;62776;50.518;6.732;2023-03-19T11:02:29;96351.34;;;13.28;100.00
74346;BME280;62776;50.518;6.732;2023-03-19T11:05:28;96350.69;;;13.20;100.00
74346;BME280;62776;50.518;6.732;2023-03-19T11:08:19;96349.00;;;13.17;100.00
74346;BME280;62776;50.518;6.732;2023-03-19T11:11:21;96353.16;;;13.24;100.00
74346;BME280;62776;50.518;6.732;2023-03-19T11:14:18;96354.34;;;13.13;100.00
74346;BME280;62776;50.518;6.732;2023-03-19T11:23:14;96345.25;;;13.29;100.00
74346;BME280;62776;50.518;6.732;2023-03-19T11:26:03;96338.78;;;13.43;100.00
74346;BME280;62776;50.518;6.732;2023-03-19T11:28:50;96343.84;;;13.49;100.00
74346;BME280;62776;50.518;6.732;2023-03-19T11:31:48;96343.50;;;13.63;100.00
74346;BME280;62776;50.518;6.732;2023-03-19T11:34:55;96339.66;;;13.76;100.00
74346;BME280;62776;50.518;6.732;2023-03-19T11:37:56;96349.50;;;13.99;100.00
74346;BME280;62776;50.518;6.732;2023-03-19T11:44:33;96349.34;;;14.05;100.00
74346;BME280;62776;50.518;6.732;2023-03-19T11:47:53;96338.13;;;14.01;100.00
74346;BME280;62776;50.518;6.732;2023-03-19T11:56:49;96342.09;;;14.16;100.00
74346;BME280;62776;50.518;6.732;2023-03-19T12:03:33;96333.16;;;13.92;100.00
74346;BME280;62776;50.518;6.732;2023-03-19T12:09:28;96348.22;;;13.83;98.23
74346;BME280;62776;50.518;6.732;2023-03-19T12:22:47;96348.19;;;13.15;100.00
74346;BME280;62776;50.518;6.732;2023-03-19T12:34:18;96358.38;;;12.86;100.00
74346;BME280;62776;50.518;6.732;2023-03-19T12:37:28;96358.03;;;12.63;100.00
74346;BME280;62776;50.518;6.732;2023-03-19T12:40:26;96352.59;;;12.72;100.00
74346;BME280;62776;50.518;6.732;2023-03-19T12:46:18;96359.63;;;12.70;100.00
74346;BME280;62776;50.518;6.732;2023-03-19T12:52:38;96363.63;;;12.44;100.00
74346;BME280;62776;50.518;6.732;2023-03-19T12:55:34;96354.41;;;12.30;100.00
74346;BME280;62776;50.518;6.732;2023-03-19T12:58:46;96357.88;;;12.30;100.00
74346;BME280;62776;50.518;6.732;2023-03-19T13:01:50;96358.97;;;12.17;100.00
74346;BME280;62776;50.518;6.732;2023-03-19T13:05:30;96356.69;;;12.02;100.00
74346;BME280;62776;50.518;6.732;2023-03-19T13:08:04;96353.88;;;12.13;100.00
74346;BME280;62776;50.518;6.732;2023-03-19T13:10:58;96351.03;;;12.25;100.00
74346;BME280;62776;50.518;6.732;2023-03-19T13:13:51;96349.06;;;12.36;100.00
74346;BME280;62776;50.518;6.732;2023-03-19T13:20:21;96344.97;;;12.64;100.00
74346;BME280;62776;50.518;6.732;2023-03-19T13:23:22;96349.00;;;12.79;100.00
74346;BME280;62776;50.518;6.732;2023-03-19T13:26:11;96336.91;;;12.75;100.00
74346;BME280;62776;50.518;6.732;2023-03-19T13:29:22;96345.69;;;12.71;100.00
74346;BME280;62776;50.518;6.732;2023-03-19T13:32:34;96341.00;;;12.86;100.00
74346;BME280;62776;50.518;6.732;2023-03-19T13:38:25;96322.09;;;13.15;100.00
74346;BME280;62776;50.518;6.732;2023-03-19T13:47:48;96323.28;;;13.00;100.00
74346;BME280;62776;50.518;6.732;2023-03-19T13:54:11;96320.25;;;13.19;100.00
74346;BME280;62776;50.518;6.732;2023-03-19T13:59:48;96318.94;;;13.36;100.00
74346;BME280;62776;50.518;6.732;2023-03-19T14:05:33;96314.00;;;13.59;100.00
74346;BME280;62776;50.518;6.732;2023-03-19T14:08:45;96315.41;;;13.73;100.00
74346;BME280;62776;50.518;6.732;2023-03-19T14:11:37;96312.84;;;14.02;100.00
74346;BME280;62776;50.518;6.732;2023-03-19T14:14:24;96308.66;;;14.27;100.00
74346;BME280;62776;50.518;6.732;2023-03-19T14:17:18;96307.97;;;14.51;100.00
74346;BME280;62776;50.518;6.732;2023-03-19T14:23:09;96301.34;;;15.51;100.00
74346;BME280;62776;50.518;6.732;2023-03-19T14:26:16;96310.22;;;15.71;90.21
74346;BME280;62776;50.518;6.732;2023-03-19T14:29:05;96318.72;;;15.25;91.85
74346;BME280;62776;50.518;6.732;2023-03-19T14:31:55;96319.84;;;14.91;93.70
74346;BME280;62776;50.518;6.732;2023-03-19T14:34:58;96324.91;;;14.67;95.46
74346;BME280;62776;50.518;6.732;2023-03-19T14:37:50;96322.34;;;14.37;94.28
74346;BME280;62776;50.518;6.732;2023-03-19T14:40:55;96325.06;;;14.01;93.96
74346;BME280;62776;50.518;6.732;2023-03-19T14:47:28;96327.97;;;13.58;100.00
74346;BME280;62776;50.518;6.732;2023-03-19T14:50:55;96334.50;;;13.41;100.00
74346;BME280;62776;50.518;6.732;2023-03-19T14:53:54;96330.78;;;13.49;100.00
74346;BME280;62776;50.518;6.732;2023-03-19T14:56:56;96329.75;;;13.56;100.00
74346;BME280;62776;50.518;6.732;2023-03-19T14:59:48;96327.16;;;13.55;100.00
74346;BME280;62776;50.518;6.732;2023-03-19T15:02:40;96332.47;;;13.52;100.00
74346;BME280;62776;50.518;6.732;2023-03-19T15:05:33;96327.16;;;13.55;100.00
74346;BME280;62776;50.518;6.732;2023-03-19T15:08:22;96339.53;;;13.48;100.00
74346;BME280;62776;50.518;6.732;2023-03-19T15:20:18;96343.28;;;13.71;100.00
74346;BME280;62776;50.518;6.732;2023-03-19T15:23:10;96344.56;;;13.90;100.00
74346;BME280;62776;50.518;6.732;2023-03-19T15:26:00;96343.28;;;14.04;100.00
74346;BME280;62776;50.518;6.732;2023-03-19T15:28:50;96345.63;;;14.13;100.00
74346;BME280;62776;50.518;6.732;2023-03-19T15:31:44;96337.56;;;14.21;100.00
74346;BME280;62776;50.518;6.732;2023-03-19T15:34:32;96347.78;;;14.30;100.00
74346;BME280;62776;50.518;6.732;2023-03-19T15:37:19;96350.50;;;14.26;99.02
74346;BME280;62776;50.518;6.732;2023-03-19T15:40:10;96349.03;;;14.17;98.25
74346;BME280;62776;50.518;6.732;2023-03-19T15:43:02;96344.13;;;14.05;95.58
74346;BME280;62776;50.518;6.732;2023-03-19T15:45:50;96346.97;;;13.97;92.56
74346;BME280;62776;50.518;6.732;2023-03-19T15:48:49;96354.31;;;13.83;88.47
74346;BME280;62776;50.518;6.732;2023-03-19T15:51:40;96350.16;;;13.75;87.00
74346;BME280;62776;50.518;6.732;2023-03-19T15:54:32;96355.47;;;13.72;88.62
74346;BME280;62776;50.518;6.732;2023-03-19T15:57:19;96354.94;;;13.59;87.86
74346;BME280;62776;50.518;6.732;2023-03-19T16:00:08;96363.88;;;13.49;88.58
74346;BME280;62776;50.518;6.732;2023-03-19T16:02:57;96360.56;;;13.42;90.17
74346;BME280;62776;50.518;6.732;2023-03-19T16:05:44;96365.75;;;13.44;92.94
74346;BME280;62776;50.518;6.732;2023-03-19T16:08:31;96368.34;;;13.45;95.90
74346;BME280;62776;50.518;6.732;2023-03-19T16:11:29;96376.56;;;13.29;95.38
74346;BME280;62776;50.518;6.732;2023-03-19T16:21:15;96399.53;;;13.13;99.54
74346;BME280;62776;50.518;6.732;2023-03-19T16:24:26;96409.31;;;13.02;99.56
74346;BME280;62776;50.518;6.732;2023-03-19T16:30:25;96414.91;;;12.87;100.00
74346;BME280;62776;50.518;6.732;2023-03-19T16:33:16;96422.03;;;12.79;100.00
74346;BME280;62776;50.518;6.732;2023-03-19T16:36:08;96431.72;;;12.72;100.00
74346;BME280;62776;50.518;6.732;2023-03-19T16:39:23;96433.84;;;12.54;100.00
74346;BME280;62776;50.518;6.732;2023-03-19T16:42:28;96433.13;;;12.46;100.00
74346;BME280;62776;50.518;6.732;2023-03-19T16:48:04;96434.00;;;12.44;100.00
74346;BME280;62776;50.518;6.732;2023-03-19T16:50:51;96442.13;;;12.29;100.00
74346;BME280;62776;50.518;6.732;2023-03-19T16:53:38;96442.19;;;12.26;100.00
74346;BME280;62776;50.518;6.732;2023-03-19T16:56:25;96443.16;;;12.21;100.00